Aérodrome :
LOGIN :

S'inscrire | Disclaimer

   EN    FR    IT 

 










Légende :    VFR   VFR Marginal   IFR   IFR Intensif   IFR Très Intensif
Visi : 
Plafond : 
>= 8 km
>= 3000ft
5 à 8 km
1000 à 3000 ft
1500m à 5 km
500 à 1000 ft
800 à 1500m
200 à 500 ft
< 800m
< 200 ft
Symboles :   Orages  Brouillard  Fortes neiges  Fortes précipitations  Vent > 20 kt
SIGMETs :   Divers  Orages  Givrage  Turbulence  Onde Orograph.  Cendres Volcan.






- Altitude de l'aérodrome : 588 ft
- Code IATA : DME


UUDD - Domodedovo International

DERNIER METAR :
  • 280800Z 19004MPS 160V220 9999 SCT048 19/07 Q1023 R14R/CLRD60 NOSIG

METARs EXPIRÉS :
  • 280730Z 18003MPS 090V230 9999 SCT045 18/06 Q1023 R14R/CLRD60 NOSIG
  • 280700Z 18003MPS 140V240 CAVOK 19/09 Q1023 R14R/CLRD60 NOSIG
  • 280630Z 16004MPS CAVOK 18/08 Q1023 R14R/CLRD60 NOSIG
  • 280600Z 26003MPS 210V280 CAVOK 17/07 Q1024 R14R/CLRD60 NOSIG
  • 280530Z 22002MPS 150V310 CAVOK 17/08 Q1024 R14R/CLRD60 NOSIG

TAF TAF UUDD
Valide du 28 à 06h jusqu'au 29 à 12h UTC


280457Z 2806/2912 18003MPS 9999 SCT030 TX22/2812Z TN13/2901Z
BECMG 2901/2903 09005MPS
TEMPO 2905/2912 05008G13MPS 3100 -SHRA FEW007 BKN016CB



MET'MAP, la Météo Aéronautique d'un coup d'oeil ! - Copyright ORBIFLY Décembre 2007 - Disclaimer

ORBIFLY MET'MAP TEAM :

Programmation & Développement : Alexandra Zaïnal
Sur une idée originale de : Baudouin d'Aumeries
Assistance à la programmation : Marc-Olivier Méhu
Soutien technique & logistique : Manuel Goepfert

Contact : metmap@orbifly.com




SOURCES & CREDITS :

   NOAA